Time;durP1;ratioP1;P1;durP2;ratioP2;P2;SDS_P1;SDS_P2;PMS_P1;PMS_P2;Temp;Humidity;BMP_temperature;BMP_pressure;BME280_temperature;BME280_humidity;BME280_pressure;Samples;Min_cycle;Max_cycle;Signal;HPM_P1;HPM_P2
2021/10/11 00:00:14;;;;;;;1.55;0.90;;;6.60;99.90;;;;;;5032105;28;20037;-80
2021/10/11 00:02:40;;;;;;;2.50;1.02;;;6.70;99.90;;;;;;5031562;28;20453;-80
2021/10/11 00:05:07;;;;;;;3.40;1.60;;;6.60;99.90;;;;;;5016839;28;20030;-79
2021/10/11 00:07:33;;;;;;;2.67;1.30;;;6.60;99.90;;;;;;5016786;28;20029;-79
2021/10/11 00:09:58;;;;;;;1.48;0.82;;;6.60;99.90;;;;;;5017804;28;20029;-80
2021/10/11 00:12:24;;;;;;;1.88;1.20;;;6.60;99.90;;;;;;5016283;28;20032;-81
2021/10/11 00:14:54;;;;;;;1.50;0.73;;;6.60;99.90;;;;;;5012097;28;20026;-80
2021/10/11 00:17:20;;;;;;;2.97;1.47;;;6.50;99.90;;;;;;5020684;28;20093;-80
2021/10/11 00:19:50;;;;;;;2.77;1.03;;;6.60;99.90;;;;;;5025788;28;20033;-81
2021/10/11 00:22:17;;;;;;;2.83;1.40;;;6.60;99.90;;;;;;5019467;28;20038;-80
2021/10/11 00:24:43;;;;;;;3.45;1.85;;;6.50;99.90;;;;;;5013242;28;20101;-80
2021/10/11 00:27:08;;;;;;;2.03;0.93;;;6.50;99.90;;;;;;5013851;28;20083;-80
2021/10/11 00:29:34;;;;;;;2.73;1.03;;;6.50;99.90;;;;;;5014570;28;20018;-80
2021/10/11 00:32:03;;;;;;;2.80;1.35;;;6.50;99.90;;;;;;5009415;28;20034;-80
2021/10/11 00:34:29;;;;;;;2.17;1.17;;;6.40;99.90;;;;;;5009575;28;20022;-80
2021/10/11 00:36:55;;;;;;;1.47;0.90;;;6.40;99.90;;;;;;4993818;28;20041;-81
2021/10/11 00:39:20;;;;;;;1.40;1.15;;;6.30;99.90;;;;;;4993388;28;20432;-79
2021/10/11 00:41:46;;;;;;;3.47;1.30;;;6.30;99.90;;;;;;5012263;28;20026;-80
2021/10/11 00:44:12;;;;;;;1.60;1.20;;;6.20;99.90;;;;;;5014135;28;20576;-79
2021/10/11 00:46:37;;;;;;;1.53;1.10;;;6.30;99.90;;;;;;5013713;28;20037;-80
2021/10/11 00:49:03;;;;;;;1.90;1.00;;;6.30;99.90;;;;;;5016966;28;20018;-80
2021/10/11 00:51:29;;;;;;;1.83;1.13;;;6.20;99.90;;;;;;5017795;28;20052;-80
2021/10/11 00:53:55;;;;;;;1.80;0.97;;;6.30;99.90;;;;;;5008056;28;20062;-80
2021/10/11 00:56:21;;;;;;;3.30;1.57;;;6.30;99.90;;;;;;5025347;28;20494;-80
2021/10/11 00:58:46;;;;;;;1.53;1.23;;;6.30;99.90;;;;;;5017967;28;20029;-80
2021/10/11 01:01:12;;;;;;;2.53;1.00;;;6.20;99.90;;;;;;5022417;28;20048;-79
2021/10/11 01:03:37;;;;;;;1.37;0.63;;;6.20;99.90;;;;;;5017340;28;20041;-78
2021/10/11 01:06:04;;;;;;;2.60;0.80;;;6.10;99.90;;;;;;5002334;28;20084;-79
2021/10/11 01:08:30;;;;;;;1.57;0.93;;;6.10;99.90;;;;;;5017879;28;20027;-78
2021/10/11 01:10:56;;;;;;;3.73;1.57;;;6.00;99.90;;;;;;5001756;28;20026;-80
2021/10/11 01:13:22;;;;;;;1.50;0.53;;;6.00;99.90;;;;;;5014960;28;20033;-80
2021/10/11 01:15:47;;;;;;;2.70;1.53;;;5.90;99.90;;;;;;5019461;28;20014;-78
2021/10/11 01:18:13;;;;;;;2.13;1.03;;;5.90;99.90;;;;;;5021271;28;20045;-78
2021/10/11 01:20:39;;;;;;;2.20;1.03;;;5.90;99.90;;;;;;5019543;28;20045;-79
2021/10/11 01:23:05;;;;;;;2.03;1.13;;;5.90;99.90;;;;;;5019869;28;20029;-79
2021/10/11 01:25:31;;;;;;;1.87;1.10;;;6.10;99.90;;;;;;5021101;28;20041;-79
2021/10/11 01:27:56;;;;;;;2.97;1.23;;;5.90;99.90;;;;;;5016490;28;20030;-81
2021/10/11 01:30:22;;;;;;;3.03;1.30;;;5.90;99.90;;;;;;5016335;28;20371;-80
2021/10/11 01:32:48;;;;;;;1.97;0.90;;;5.90;99.90;;;;;;5015542;28;20021;-80
2021/10/11 01:35:15;;;;;;;1.97;0.83;;;5.90;99.90;;;;;;5013573;28;20387;-80
2021/10/11 01:37:42;;;;;;;2.77;1.67;;;5.80;99.90;;;;;;5015330;28;20124;-79
2021/10/11 01:40:09;;;;;;;1.23;0.60;;;5.80;99.90;;;;;;5014530;28;20050;-80
2021/10/11 01:42:35;;;;;;;2.73;1.17;;;5.70;99.90;;;;;;5015195;28;20037;-78
2021/10/11 01:45:01;;;;;;;1.07;0.90;;;5.80;99.90;;;;;;5014446;28;20038;-80
2021/10/11 01:47:27;;;;;;;3.20;1.17;;;5.80;99.90;;;;;;5014804;28;20053;-80
2021/10/11 01:49:54;;;;;;;2.17;1.43;;;5.80;99.90;;;;;;5012630;28;20080;-79
2021/10/11 01:52:19;;;;;;;3.07;1.43;;;5.70;99.90;;;;;;5013601;28;20568;-79
2021/10/11 01:54:45;;;;;;;1.97;1.00;;;5.70;99.90;;;;;;5005512;28;20026;-79
2021/10/11 01:57:12;;;;;;;1.73;0.90;;;5.70;99.90;;;;;;5013440;28;20034;-80
2021/10/11 01:59:38;;;;;;;1.10;0.60;;;5.70;99.90;;;;;;5012214;28;20041;-79
2021/10/11 02:02:03;;;;;;;1.87;0.83;;;5.70;99.90;;;;;;5014667;28;20048;-80
2021/10/11 02:04:30;;;;;;;3.97;1.17;;;5.70;99.90;;;;;;5014044;28;20022;-80
2021/10/11 02:06:56;;;;;;;0.87;0.60;;;5.70;99.90;;;;;;5014993;28;20185;-80
2021/10/11 02:09:23;;;;;;;1.27;0.60;;;5.70;99.90;;;;;;5021501;28;20044;-78
2021/10/11 02:11:49;;;;;;;3.40;1.17;;;5.70;99.90;;;;;;5022580;28;20084;-79
2021/10/11 02:14:14;;;;;;;2.03;1.27;;;5.60;99.90;;;;;;5014385;28;20030;-79
2021/10/11 02:16:40;;;;;;;2.07;1.47;;;5.60;99.90;;;;;;5014629;28;20053;-78
2021/10/11 02:19:06;;;;;;;3.33;1.10;;;5.60;99.90;;;;;;5013323;28;20115;-78
2021/10/11 02:21:31;;;;;;;2.43;1.07;;;5.60;99.90;;;;;;5013086;28;20022;-80
2021/10/11 02:23:57;;;;;;;2.03;0.70;;;5.60;99.90;;;;;;5014944;28;20033;-80
2021/10/11 02:26:23;;;;;;;1.30;0.80;;;5.60;99.90;;;;;;5014654;28;20030;-80
2021/10/11 02:28:52;;;;;;;1.00;0.60;;;5.60;99.90;;;;;;5012403;28;20041;-79
2021/10/11 02:31:18;;;;;;;1.93;0.77;;;5.60;99.90;;;;;;5013103;28;20026;-79
2021/10/11 02:33:44;;;;;;;2.63;1.77;;;5.50;99.90;;;;;;5014792;28;20030;-79
2021/10/11 02:36:10;;;;;;;2.90;1.43;;;5.50;99.90;;;;;;5034470;22;20026;-83
2021/10/11 02:38:36;;;;;;;1.37;0.50;;;5.40;99.90;;;;;;5015230;28;20040;-80
2021/10/11 02:41:02;;;;;;;2.30;1.17;;;5.40;99.90;;;;;;5018752;28;20026;-80
2021/10/11 02:43:28;;;;;;;2.23;1.23;;;5.40;99.90;;;;;;5019893;28;20036;-80
2021/10/11 02:45:54;;;;;;;0.90;0.70;;;;;;;;;;5019775;28;20030;-80
2021/10/11 02:48:20;;;;;;;1.83;0.87;;;5.40;99.90;;;;;;5020926;28;20064;-80
2021/10/11 02:50:46;;;;;;;1.63;1.07;;;5.40;99.90;;;;;;5020479;28;20045;-80
2021/10/11 02:53:11;;;;;;;1.30;0.67;;;5.40;99.90;;;;;;5009448;28;20026;-81
2021/10/11 02:55:37;;;;;;;1.43;0.77;;;5.40;99.90;;;;;;5000986;28;20483;-81
2021/10/11 02:58:03;;;;;;;1.03;0.80;;;5.40;99.90;;;;;;4998562;28;20030;-81
2021/10/11 03:00:28;;;;;;;1.13;0.60;;;5.40;99.90;;;;;;4997724;28;20038;-80
2021/10/11 03:02:54;;;;;;;0.83;0.73;;;5.30;99.90;;;;;;4995943;28;20045;-80
2021/10/11 03:05:20;;;;;;;1.90;1.23;;;5.30;99.90;;;;;;5001910;28;20038;-81
2021/10/11 03:07:45;;;;;;;1.57;0.93;;;5.30;99.90;;;;;;4999141;28;20030;-80
2021/10/11 03:10:11;;;;;;;3.00;0.73;;;5.30;99.90;;;;;;5017715;28;20079;-80
2021/10/11 03:12:37;;;;;;;1.67;0.90;;;5.20;99.90;;;;;;4999953;28;20030;-81
2021/10/11 03:15:04;;;;;;;2.23;1.47;;;5.20;99.90;;;;;;4998296;28;20049;-80
2021/10/11 03:17:30;;;;;;;0.70;0.50;;;5.20;99.90;;;;;;4999192;28;20392;-80
2021/10/11 03:19:55;;;;;;;1.90;0.83;;;5.20;99.90;;;;;;5004934;28;20033;-80
2021/10/11 03:22:21;;;;;;;0.63;0.50;;;5.20;99.90;;;;;;5009997;28;20057;-80
2021/10/11 03:24:46;;;;;;;1.70;0.87;;;5.20;99.90;;;;;;5020847;28;20068;-80
2021/10/11 03:27:12;;;;;;;1.83;1.33;;;5.20;99.90;;;;;;5020318;28;20032;-80
2021/10/11 03:29:37;;;;;;;1.33;0.60;;;5.20;99.90;;;;;;5007971;28;20388;-80
2021/10/11 03:32:03;;;;;;;1.80;0.70;;;5.10;99.90;;;;;;5010093;28;20037;-80
2021/10/11 03:34:29;;;;;;;1.70;0.87;;;5.10;99.90;;;;;;5001738;28;20093;-80
2021/10/11 03:36:55;;;;;;;3.37;1.30;;;5.10;99.90;;;;;;5014866;28;20125;-80
2021/10/11 03:39:20;;;;;;;0.60;0.50;;;5.10;99.90;;;;;;4999425;28;20065;-80
2021/10/11 03:41:46;;;;;;;1.47;0.90;;;5.10;99.90;;;;;;5001251;28;20113;-80
2021/10/11 03:44:11;;;;;;;2.57;0.97;;;5.10;99.90;;;;;;5001690;28;20041;-80
2021/10/11 03:46:37;;;;;;;1.40;0.80;;;5.10;99.90;;;;;;5014809;28;20117;-80
2021/10/11 03:49:03;;;;;;;2.40;1.70;;;5.20;99.90;;;;;;5019550;28;20080;-80
2021/10/11 03:51:29;;;;;;;2.80;1.50;;;5.20;99.90;;;;;;5018651;28;20018;-80
2021/10/11 03:53:55;;;;;;;1.23;0.60;;;5.10;99.90;;;;;;4999949;28;20082;-80
2021/10/11 03:56:21;;;;;;;1.37;0.90;;;5.10;99.90;;;;;;4998209;28;20057;-80
2021/10/11 03:58:47;;;;;;;2.73;0.80;;;5.00;99.90;;;;;;4998902;28;20053;-82
2021/10/11 04:01:13;;;;;;;1.67;1.00;;;5.00;99.90;;;;;;4997860;28;20126;-80
2021/10/11 04:03:39;;;;;;;4.27;1.50;;;5.00;99.90;;;;;;4999066;28;20034;-80
2021/10/11 04:06:05;;;;;;;2.73;1.37;;;5.00;99.90;;;;;;4999464;28;20024;-81
2021/10/11 04:08:37;;;;;;;0.87;0.50;;;4.90;99.90;;;;;;4999183;28;20085;-80
2021/10/11 04:11:10;;;;;;;2.67;0.93;;;4.90;99.90;;;;;;4997470;28;20093;-80
2021/10/11 04:13:37;;;;;;;1.77;1.43;;;4.80;99.90;;;;;;4998850;28;20029;-80
2021/10/11 04:16:03;;;;;;;3.50;0.60;;;4.90;99.90;;;;;;4998918;28;20030;-80
2021/10/11 04:18:29;;;;;;;2.63;0.83;;;4.80;99.90;;;;;;5009832;28;20105;-80
2021/10/11 04:20:54;;;;;;;1.80;1.07;;;4.90;99.90;;;;;;5003037;28;20058;-81
2021/10/11 04:23:20;;;;;;;1.60;1.10;;;4.80;99.90;;;;;;4997447;28;20050;-80
2021/10/11 04:25:46;;;;;;;0.83;0.50;;;4.80;99.90;;;;;;5014357;28;20049;-80
2021/10/11 04:28:18;;;;;;;1.30;0.90;;;4.70;99.90;;;;;;4997884;28;20041;-80
2021/10/11 04:30:44;;;;;;;0.97;0.70;;;4.80;99.90;;;;;;5000669;28;20049;-81
2021/10/11 04:33:10;;;;;;;2.57;1.27;;;4.70;99.90;;;;;;4997890;28;20030;-80
2021/10/11 04:35:37;;;;;;;2.87;1.13;;;4.70;99.90;;;;;;5002405;28;20022;-80
2021/10/11 04:38:03;;;;;;;4.63;1.67;;;4.70;99.90;;;;;;4998426;28;20034;-81
2021/10/11 04:40:29;;;;;;;1.97;0.60;;;4.70;99.90;;;;;;5001401;28;20065;-80
2021/10/11 04:42:55;;;;;;;2.93;1.30;;;4.70;99.90;;;;;;4998597;28;20038;-80
2021/10/11 04:45:27;;;;;;;2.63;1.40;;;4.70;99.90;;;;;;5002516;28;20039;-81
2021/10/11 04:47:53;;;;;;;1.87;0.80;;;4.70;99.90;;;;;;5001307;28;20094;-81
2021/10/11 04:50:19;;;;;;;1.30;0.53;;;4.60;99.90;;;;;;4998999;28;20069;-80
2021/10/11 04:52:44;;;;;;;0.87;0.47;;;4.80;99.90;;;;;;5002150;28;20026;-81
2021/10/11 04:55:10;;;;;;;2.50;1.20;;;4.80;99.90;;;;;;5004085;28;20030;-81
2021/10/11 04:57:36;;;;;;;1.80;1.30;;;4.80;99.90;;;;;;5006040;28;20486;-80
2021/10/11 05:00:01;;;;;;;2.43;1.13;;;4.80;99.90;;;;;;5004007;28;20026;-81
2021/10/11 05:02:28;;;;;;;2.47;1.07;;;4.80;99.90;;;;;;5006034;28;20033;-81
2021/10/11 05:04:54;;;;;;;2.23;0.90;;;4.80;99.90;;;;;;5001651;28;20080;-81
2021/10/11 05:07:20;;;;;;;0.83;0.50;;;4.80;99.90;;;;;;5013265;28;20027;-81
2021/10/11 05:09:45;;;;;;;1.73;0.90;;;4.70;99.90;;;;;;5003060;28;20026;-81
2021/10/11 05:12:11;;;;;;;1.60;0.90;;;4.70;99.90;;;;;;5005096;28;20069;-81
2021/10/11 05:14:36;;;;;;;1.93;1.40;;;4.70;99.90;;;;;;5007411;28;20034;-81
2021/10/11 05:17:02;;;;;;;2.60;1.53;;;4.80;99.90;;;;;;4994798;28;20069;-82
2021/10/11 05:19:28;;;;;;;4.20;1.57;;;4.80;99.90;;;;;;5012038;28;20037;-83
2021/10/11 05:21:55;;;;;;;0.93;0.53;;;4.80;99.90;;;;;;4993594;28;20026;-82
2021/10/11 05:24:23;;;;;;;2.90;0.97;;;4.80;99.90;;;;;;4997517;28;20125;-82
2021/10/11 05:26:50;;;;;;;1.93;1.23;;;4.80;99.90;;;;;;5004841;28;20022;-82
2021/10/11 05:29:15;;;;;;;2.93;1.40;;;4.80;99.90;;;;;;5016689;28;20050;-81
2021/10/11 05:31:41;;;;;;;1.90;1.17;;;4.80;99.90;;;;;;5000149;28;20078;-81
2021/10/11 05:34:07;;;;;;;3.93;1.23;;;4.80;99.90;;;;;;5000642;28;20085;-81
2021/10/11 05:36:32;;;;;;;1.03;0.73;;;4.80;99.90;;;;;;5004011;28;20109;-81
2021/10/11 05:38:58;;;;;;;1.50;1.03;;;4.90;99.90;;;;;;5006107;28;20042;-81
2021/10/11 05:41:24;;;;;;;2.40;1.27;;;4.90;99.90;;;;;;5002807;28;20061;-80
2021/10/11 05:43:49;;;;;;;2.97;0.97;;;4.90;99.90;;;;;;5031621;28;20038;-80
2021/10/11 05:46:15;;;;;;;1.43;0.70;;;4.90;99.90;;;;;;5032657;28;20029;-80
2021/10/11 05:48:41;;;;;;;2.93;1.53;;;4.90;99.90;;;;;;5032460;28;20510;-80
2021/10/11 05:51:06;;;;;;;1.97;1.07;;;4.90;99.90;;;;;;4998484;28;20077;-80
2021/10/11 05:53:32;;;;;;;5.10;1.40;;;4.90;99.90;;;;;;4997055;28;20050;-82
2021/10/11 05:55:57;;;;;;;1.10;0.60;;;4.90;99.90;;;;;;4997315;28;20034;-80
2021/10/11 05:58:23;;;;;;;1.93;1.10;;;4.90;99.90;;;;;;4996961;28;20133;-80
2021/10/11 06:00:49;;;;;;;1.40;0.80;;;4.90;99.90;;;;;;4989739;28;20038;-81
2021/10/11 06:03:14;;;;;;;2.07;1.30;;;5.00;99.90;;;;;;5006438;28;20164;-81
2021/10/11 06:05:40;;;;;;;1.77;0.87;;;5.10;99.90;;;;;;4997559;28;20042;-81
2021/10/11 06:08:06;;;;;;;1.60;1.03;;;5.20;99.90;;;;;;4996731;28;20049;-81
2021/10/11 06:10:31;;;;;;;2.53;0.77;;;5.20;99.90;;;;;;5003133;28;20032;-81
2021/10/11 06:12:57;;;;;;;2.30;1.37;;;5.10;99.90;;;;;;5005170;28;20546;-80
2021/10/11 06:15:23;;;;;;;1.97;0.97;;;5.10;99.90;;;;;;5018120;28;20552;-81
2021/10/11 06:17:48;;;;;;;2.20;0.87;;;5.10;99.90;;;;;;5003631;28;20318;-81
2021/10/11 06:20:14;;;;;;;1.33;0.80;;;5.10;99.90;;;;;;5003931;28;20082;-81
2021/10/11 06:22:40;;;;;;;1.93;1.00;;;5.10;99.90;;;;;;5015950;28;20080;-80
2021/10/11 06:25:06;;;;;;;1.97;1.20;;;5.20;99.90;;;;;;5012639;28;20411;-81
2021/10/11 06:27:32;;;;;;;1.63;0.60;;;5.20;99.90;;;;;;4995920;28;20027;-80
2021/10/11 06:29:58;;;;;;;3.17;1.73;;;5.40;99.90;;;;;;4998007;28;20030;-80
2021/10/11 06:32:24;;;;;;;3.80;1.63;;;5.40;99.90;;;;;;4995593;28;20026;-80
2021/10/11 06:34:50;;;;;;;1.90;1.10;;;5.40;99.90;;;;;;4997437;28;20034;-80
2021/10/11 06:37:15;;;;;;;3.60;1.00;;;5.50;99.90;;;;;;5009039;28;20041;-80
2021/10/11 06:39:41;;;;;;;2.97;1.40;;;5.50;99.90;;;;;;5018068;28;20037;-81
2021/10/11 06:42:07;;;;;;;1.93;1.23;;;5.60;99.90;;;;;;5018219;28;20042;-81
2021/10/11 06:44:32;;;;;;;1.67;1.30;;;5.60;99.90;;;;;;5016955;28;20113;-80
2021/10/11 06:46:58;;;;;;;2.93;1.33;;;5.60;99.90;;;;;;5012605;28;20038;-80
2021/10/11 06:49:24;;;;;;;3.43;1.63;;;5.60;99.90;;;;;;4995420;28;20591;-81
2021/10/11 06:51:50;;;;;;;1.80;1.33;;;5.60;99.90;;;;;;4994376;28;20030;-81
2021/10/11 06:54:15;;;;;;;2.63;1.27;;;5.70;99.90;;;;;;5019245;28;20509;-81
2021/10/11 06:56:41;;;;;;;1.23;0.67;;;5.70;99.90;;;;;;4993364;28;20026;-81
2021/10/11 06:59:07;;;;;;;2.60;1.20;;;5.60;99.90;;;;;;5004012;28;20026;-81
2021/10/11 07:01:35;;;;;;;1.70;1.03;;;5.50;99.90;;;;;;4991835;28;20031;-81
2021/10/11 07:04:00;;;;;;;1.50;1.17;;;5.50;99.90;;;;;;5007963;28;20462;-82
2021/10/11 07:06:26;;;;;;;1.50;0.83;;;5.50;99.90;;;;;;5006521;28;20117;-82
2021/10/11 07:08:52;;;;;;;1.70;0.73;;;5.60;99.90;;;;;;4990152;28;20137;-81
2021/10/11 07:11:18;;;;;;;1.97;1.37;;;5.60;99.90;;;;;;4996205;28;20383;-81
2021/10/11 07:13:44;;;;;;;1.17;1.00;;;5.60;99.90;;;;;;4999380;28;20045;-82
2021/10/11 07:16:10;;;;;;;1.27;1.03;;;5.60;99.90;;;;;;4994182;28;20122;-83
2021/10/11 07:18:37;;;;;;;3.57;1.13;;;5.70;99.90;;;;;;4991447;28;20033;-82
2021/10/11 07:21:05;;;;;;;1.17;0.93;;;5.70;99.90;;;;;;5006378;28;20041;-82
2021/10/11 07:23:32;;;;;;;1.80;1.40;;;5.70;99.90;;;;;;5020306;28;20559;-81
2021/10/11 07:25:59;;;;;;;1.97;1.27;;;5.80;99.90;;;;;;5016541;28;20038;-81
2021/10/11 07:28:25;;;;;;;2.13;1.40;;;5.80;99.90;;;;;;5016378;28;20159;-81
2021/10/11 07:30:52;;;;;;;1.80;0.67;;;5.80;99.90;;;;;;5006472;28;20034;-81
2021/10/11 07:33:18;;;;;;;1.40;0.67;;;5.90;99.90;;;;;;4997108;28;20030;-81
2021/10/11 07:35:44;;;;;;;2.23;0.87;;;5.90;99.90;;;;;;4997328;28;20089;-81
2021/10/11 07:38:09;;;;;;;2.27;1.33;;;5.90;99.90;;;;;;4996798;28;20087;-81
2021/10/11 07:40:35;;;;;;;2.80;1.40;;;6.00;99.90;;;;;;4994597;28;20038;-81
2021/10/11 07:43:01;;;;;;;2.70;1.27;;;6.00;99.90;;;;;;4993868;28;20069;-81
2021/10/11 07:45:26;;;;;;;1.60;1.00;;;6.00;99.90;;;;;;4988043;28;20084;-84
2021/10/11 07:47:52;;;;;;;4.00;0.93;;;6.10;99.90;;;;;;4992106;28;20030;-85
2021/10/11 07:50:17;;;;;;;3.23;1.63;;;6.30;99.90;;;;;;5013765;28;20025;-85
2021/10/11 07:52:43;;;;;;;1.57;1.07;;;6.40;99.90;;;;;;4997657;28;20026;-85
2021/10/11 07:55:09;;;;;;;1.67;1.10;;;6.60;99.90;;;;;;4999240;28;20034;-84
2021/10/11 07:57:35;;;;;;;2.63;0.70;;;6.70;99.90;;;;;;5001693;28;20470;-84
2021/10/11 08:00:14;;;;;;;2.53;1.17;;;6.80;99.90;;;;;;4994383;28;20038;-83
2021/10/11 08:02:40;;;;;;;2.23;1.10;;;6.80;99.90;;;;;;4982284;28;20432;-84
2021/10/11 08:05:07;;;;;;;3.50;1.97;;;6.90;99.90;;;;;;4979684;28;20058;-84
2021/10/11 08:07:34;;;;;;;1.77;1.07;;;7.20;99.90;;;;;;4986429;28;20062;-84
2021/10/11 08:09:59;;;;;;;2.80;1.10;;;7.30;99.90;;;;;;4980035;28;20034;-84
2021/10/11 08:12:25;;;;;;;3.43;1.00;;;7.40;99.90;;;;;;4989525;28;20042;-84
2021/10/11 08:14:51;;;;;;;1.50;1.10;;;7.60;99.90;;;;;;4991764;28;20038;-84
2021/10/11 08:17:16;;;;;;;2.53;1.70;;;7.80;99.90;;;;;;4993435;28;20100;-83
2021/10/11 08:19:42;;;;;;;5.00;1.70;;;7.80;99.90;;;;;;4989919;28;20073;-82
2021/10/11 08:22:08;;;;;;;3.53;1.57;;;8.00;99.90;;;;;;4993687;28;20557;-83
2021/10/11 08:24:34;;;;;;;2.27;1.60;;;7.90;99.90;;;;;;4993065;28;20411;-82
2021/10/11 08:26:59;;;;;;;2.67;1.50;;;7.90;99.90;;;;;;4993719;28;20479;-83
2021/10/11 08:29:25;;;;;;;3.87;1.53;;;7.90;99.90;;;;;;4991101;28;20102;-83
2021/10/11 08:31:52;;;;;;;4.53;2.03;;;7.90;99.90;;;;;;4992829;28;20538;-82
2021/10/11 08:34:19;;;;;;;2.47;1.17;;;8.10;99.90;;;;;;4993278;28;20023;-82
2021/10/11 08:36:44;;;;;;;3.03;1.40;;;8.10;99.90;;;;;;4991325;28;20089;-83
2021/10/11 08:39:10;;;;;;;3.45;1.05;;;8.00;99.90;;;;;;4990411;28;20035;-83
2021/10/11 08:41:36;;;;;;;6.03;2.30;;;8.10;99.90;;;;;;4988273;28;20113;-83
2021/10/11 08:44:01;;;;;;;2.58;1.20;;;8.20;99.90;;;;;;4989675;28;20454;-83
2021/10/11 08:46:27;;;;;;;2.97;1.40;;;8.40;99.90;;;;;;4990684;28;20027;-84
2021/10/11 08:48:53;;;;;;;2.45;1.55;;;8.50;99.90;;;;;;4988761;28;20031;-83
2021/10/11 08:51:22;;;;;;;2.85;1.52;;;8.60;99.90;;;;;;4989578;28;20106;-82
2021/10/11 08:53:48;;;;;;;3.45;1.27;;;8.70;99.90;;;;;;4990757;28;20451;-83
2021/10/11 08:56:14;;;;;;;1.20;0.75;;;8.90;99.90;;;;;;4990489;28;20113;-83
2021/10/11 08:58:45;;;;;;;1.95;1.10;;;9.10;99.90;;;;;;4990079;28;20038;-83
2021/10/11 09:01:11;;;;;;;3.75;1.92;;;9.20;99.90;;;;;;4985893;28;20066;-83
2021/10/11 09:03:36;;;;;;;2.05;0.93;;;9.40;99.90;;;;;;4981651;28;20065;-83
2021/10/11 09:06:08;;;;;;;3.58;2.10;;;9.50;99.90;;;;;;4989794;28;20038;-83
2021/10/11 09:08:35;;;;;;;1.50;1.00;;;9.70;99.90;;;;;;5005340;28;20041;-83
2021/10/11 09:11:03;;;;;;;3.22;1.63;;;9.80;99.90;;;;;;4978141;28;20514;-83
2021/10/11 09:13:40;;;;;;;1.55;0.82;;;10.00;99.90;;;;;;4984396;28;20068;-82
2021/10/11 09:16:30;;;;;;;1.77;1.13;;;10.10;99.90;;;;;;5052319;23;20053;-83
2021/10/11 09:19:29;;;;;;;2.65;0.95;;;10.30;99.90;;;;;;5040402;28;20030;-82
2021/10/11 09:21:55;;;;;;;3.20;1.48;;;10.40;99.90;;;;;;5042964;28;20063;-83
2021/10/11 09:24:21;;;;;;;3.85;1.80;;;10.40;99.90;;;;;;5038728;28;20029;-83
2021/10/11 09:26:48;;;;;;;2.42;1.60;;;10.40;99.90;;;;;;5043668;28;20079;-82
2021/10/11 09:29:16;;;;;;;2.35;1.17;;;10.50;99.90;;;;;;5043005;28;20616;-83
2021/10/11 09:31:47;;;;;;;1.88;0.93;;;10.50;99.90;;;;;;5042632;28;20036;-82
2021/10/11 09:34:19;;;;;;;3.17;1.23;;;10.40;99.90;;;;;;5039182;28;20085;-83
2021/10/11 09:36:55;;;;;;;;;;;10.60;99.90;;;;;;5026920;28;20028;-84
2021/10/11 09:39:23;;;;;;;3.45;1.20;;;10.60;99.90;;;;;;5022763;28;19912;-83
2021/10/11 09:41:50;;;;;;;3.00;1.60;;;10.70;99.90;;;;;;5041523;28;20030;-82
2021/10/11 09:44:18;;;;;;;2.78;1.23;;;11.00;99.90;;;;;;5039924;28;20037;-83
2021/10/11 09:46:44;;;;;;;3.17;1.90;;;11.00;99.90;;;;;;5042727;28;20025;-82
2021/10/11 09:49:10;;;;;;;2.33;1.10;;;11.10;99.90;;;;;;5045917;28;20107;-82
2021/10/11 09:51:36;;;;;;;2.30;1.30;;;11.00;99.90;;;;;;5059229;28;20518;-84
2021/10/11 09:54:02;;;;;;;2.00;0.77;;;11.10;99.90;;;;;;5061626;28;20052;-83
2021/10/11 09:56:29;;;;;;;4.03;1.63;;;11.10;99.90;;;;;;5030024;28;20298;-84
2021/10/11 09:58:55;;;;;;;2.95;1.90;;;11.20;99.90;;;;;;5040091;28;20025;-83
2021/10/11 10:01:22;;;;;;;1.38;0.77;;;11.30;99.90;;;;;;5038667;28;20025;-83
2021/10/11 10:03:49;;;;;;;2.40;1.15;;;11.30;99.90;;;;;;5040943;28;20026;-82
2021/10/11 10:06:15;;;;;;;3.00;1.48;;;11.30;99.90;;;;;;5030217;28;20244;-83
2021/10/11 10:08:43;;;;;;;2.58;1.33;;;11.40;99.90;;;;;;5037676;28;20132;-83
2021/10/11 10:11:09;;;;;;;2.60;1.35;;;11.50;99.90;;;;;;5020307;28;20089;-83
2021/10/11 10:13:46;;;;;;;1.95;1.10;;;11.70;99.90;;;;;;5026800;28;20029;-83
2021/10/11 10:16:13;;;;;;;3.10;1.55;;;11.80;99.90;;;;;;5040152;28;20034;-84
2021/10/11 10:18:42;;;;;;;2.20;1.25;;;11.90;99.90;;;;;;5040874;28;20117;-83
2021/10/11 10:21:09;;;;;;;5.72;2.58;;;12.00;99.90;;;;;;5038542;28;20026;-83
2021/10/11 10:23:37;;;;;;;3.05;1.55;;;12.20;99.90;;;;;;5022877;28;20030;-83
2021/10/11 10:26:05;;;;;;;2.53;1.27;;;12.10;99.90;;;;;;5020325;28;20109;-84
2021/10/11 10:28:50;;;;;;;3.13;1.50;;;12.00;99.90;;;;;;5018788;28;20044;-83
2021/10/11 10:31:31;;;;;;;3.40;2.13;;;11.90;99.90;;;;;;5033966;28;20029;-83
2021/10/11 10:33:57;;;;;;;3.80;1.52;;;11.80;99.90;;;;;;5040332;28;20021;-83
2021/10/11 10:36:28;;;;;;;3.85;1.38;;;11.90;99.90;;;;;;5042546;28;20029;-83
2021/10/11 10:39:08;;;;;;;3.63;1.75;;;12.00;99.90;;;;;;5043869;28;20098;-84
2021/10/11 10:41:36;;;;;;;3.50;2.22;;;12.10;99.90;;;;;;5016681;28;20037;-83
2021/10/11 10:44:16;;;;;;;2.45;1.15;;;12.20;99.90;;;;;;5019281;28;20030;-83
2021/10/11 10:46:59;;;;;;;3.00;1.55;;;12.30;99.90;;;;;;5020042;28;20449;-83
2021/10/11 10:49:31;;;;;;;2.28;1.27;;;12.30;99.90;;;;;;5019215;28;20026;-80
2021/10/11 10:51:57;;;;;;;3.20;0.88;;;12.40;99.90;;;;;;5018202;28;20450;-83
2021/10/11 10:54:44;;;;;;;2.45;1.33;;;12.50;99.90;;;;;;5020696;28;20045;-82
2021/10/11 10:57:13;;;;;;;3.13;1.50;;;12.60;99.90;;;;;;5019985;28;20487;-84
2021/10/11 10:59:40;;;;;;;3.00;1.38;;;12.80;99.90;;;;;;5018202;28;20383;-83
2021/10/11 11:02:08;;;;;;;2.67;1.00;;;12.90;99.90;;;;;;5024755;28;20033;-83
2021/10/11 11:04:34;;;;;;;4.03;1.50;;;12.90;99.90;;;;;;5018511;28;20057;-81
2021/10/11 11:07:04;;;;;;;2.53;1.63;;;12.90;99.90;;;;;;5030359;28;20036;-82
2021/10/11 11:09:44;;;;;;;2.05;0.90;;;13.00;99.90;;;;;;5034848;28;20044;-82
2021/10/11 11:12:14;;;;;;;2.22;1.42;;;13.20;99.90;;;;;;5042110;28;20026;-83
2021/10/11 11:14:44;;;;;;;4.82;1.92;;;13.20;99.90;;;;;;5028472;28;20479;-83
2021/10/11 11:17:13;;;;;;;2.63;1.15;;;13.30;99.90;;;;;;5019682;28;20029;-82
2021/10/11 11:19:42;;;;;;;2.30;1.15;;;13.40;99.90;;;;;;5020694;28;20033;-82
2021/10/11 11:22:08;;;;;;;1.63;0.95;;;13.40;99.90;;;;;;5020476;28;20045;-82
2021/10/11 11:24:35;;;;;;;3.13;1.30;;;13.30;99.90;;;;;;5045412;28;20032;-83
2021/10/11 11:27:02;;;;;;;2.35;1.35;;;13.40;99.90;;;;;;5044830;28;20088;-83
2021/10/11 11:29:30;;;;;;;3.00;1.35;;;13.30;99.90;;;;;;5041278;28;20043;-82
2021/10/11 11:31:56;;;;;;;3.10;1.27;;;13.30;99.90;;;;;;5037496;28;20029;-83
2021/10/11 11:34:22;;;;;;;1.85;1.10;;;13.30;99.90;;;;;;5038148;28;20055;-82
2021/10/11 11:36:55;;;;;;;2.05;1.10;;;13.30;99.90;;;;;;5038415;28;20029;-83
2021/10/11 11:39:24;;;;;;;2.58;1.15;;;13.20;99.90;;;;;;5044449;28;20028;-82
2021/10/11 11:41:55;;;;;;;3.67;1.02;;;13.20;99.90;;;;;;5041911;28;20477;-83
2021/10/11 11:44:26;;;;;;;2.63;0.95;;;13.20;99.90;;;;;;5046046;28;20044;-82
2021/10/11 11:47:00;;;;;;;4.13;1.27;;;13.30;99.90;;;;;;5041555;28;20095;-83
2021/10/11 11:49:25;;;;;;;3.47;1.45;;;13.30;99.90;;;;;;5040955;28;20026;-83
2021/10/11 11:52:02;;;;;;;3.17;1.33;;;13.40;99.90;;;;;;5039417;28;20098;-83
2021/10/11 11:54:27;;;;;;;2.83;1.50;;;13.40;99.90;;;;;;5032476;28;20036;-82
2021/10/11 11:56:56;;;;;;;2.83;1.17;;;13.30;99.90;;;;;;5036355;28;20025;-83
2021/10/11 11:59:22;;;;;;;2.80;1.42;;;13.50;99.90;;;;;;5042658;28;20136;-83
2021/10/11 12:01:47;;;;;;;2.50;1.35;;;13.50;99.90;;;;;;5034760;28;20056;-84
2021/10/11 12:04:13;;;;;;;3.53;1.70;;;13.50;99.90;;;;;;5038399;28;20462;-82
2021/10/11 12:06:40;;;;;;;2.08;1.08;;;13.60;99.90;;;;;;5038896;28;20025;-83
2021/10/11 12:09:07;;;;;;;3.13;1.85;;;13.80;99.90;;;;;;5034084;28;20037;-83
2021/10/11 12:11:32;;;;;;;2.97;1.33;;;13.90;99.90;;;;;;5045409;28;20021;-82
2021/10/11 12:13:59;;;;;;;2.95;1.73;;;13.90;99.90;;;;;;5043251;28;20034;-83
2021/10/11 12:16:26;;;;;;;3.53;1.15;;;13.90;99.90;;;;;;5039307;28;20059;-83
2021/10/11 12:18:54;;;;;;;2.45;1.25;;;13.90;99.90;;;;;;5041484;28;20044;-83
2021/10/11 12:21:30;;;;;;;3.72;1.40;;;14.00;99.90;;;;;;5039357;28;20055;-83
2021/10/11 12:23:58;;;;;;;3.55;1.92;;;14.00;99.90;;;;;;5013464;28;20029;-83
2021/10/11 12:26:26;;;;;;;1.90;1.10;;;13.90;99.90;;;;;;5029931;28;20038;-82
2021/10/11 12:29:01;;;;;;;3.50;1.73;;;13.90;99.90;;;;;;5043627;28;20029;-82
2021/10/11 12:31:32;;;;;;;2.60;1.27;;;13.90;99.90;;;;;;5044538;28;20079;-83
2021/10/11 12:34:07;;;;;;;2.65;1.30;;;13.90;99.90;;;;;;5038429;28;20025;-83
2021/10/11 12:36:45;;;;;;;3.28;1.70;;;14.20;99.90;;;;;;5039347;28;20021;-83
2021/10/11 12:39:10;;;;;;;2.10;1.10;;;14.20;99.90;;;;;;5038764;28;20033;-83
2021/10/11 12:41:42;;;;;;;2.35;1.33;;;14.10;99.90;;;;;;5039742;28;20021;-83
2021/10/11 12:44:08;;;;;;;1.90;0.77;;;14.20;99.90;;;;;;5014844;28;20034;-83
2021/10/11 12:46:45;;;;;;;2.60;1.15;;;14.20;99.90;;;;;;5037420;28;20038;-83
2021/10/11 12:49:12;;;;;;;2.58;1.45;;;14.30;99.90;;;;;;5039106;28;20021;-82
2021/10/11 12:51:40;;;;;;;3.22;1.00;;;14.40;99.90;;;;;;5030187;28;20124;-83
2021/10/11 12:54:13;;;;;;;3.25;1.63;;;14.60;99.90;;;;;;5048180;28;20108;-83